createdAt,value
2019-02-09T10:56:50.581Z,82
2019-02-09T10:58:49.768Z,82
2019-02-09T11:22:50.015Z,76
2019-02-09T11:24:50.217Z,82
2019-02-09T11:26:50.494Z,90
2019-02-09T11:28:49.766Z,18
2019-02-09T11:30:49.918Z,62
2019-02-09T11:32:50.186Z,81
2019-02-09T11:34:49.709Z,65
2019-02-09T11:36:50.025Z,65
2019-02-09T11:52:50.503Z,35
2019-02-09T11:54:49.847Z,27
2019-02-09T11:56:50.219Z,26
2019-02-09T11:58:50.435Z,28
2019-02-09T12:00:50.651Z,25
2019-02-09T12:02:49.905Z,31
2019-02-09T12:04:50.458Z,22
2019-02-09T12:06:49.899Z,34
2019-02-09T12:08:50.116Z,34
2019-02-09T12:10:50.246Z,33
2019-02-09T12:12:50.496Z,28
2019-02-09T12:14:49.742Z,28
2019-02-09T12:16:50.050Z,38
2019-02-09T12:18:50.236Z,23
2019-02-09T12:20:50.312Z,30
2019-02-09T12:22:50.557Z,31
2019-02-09T12:24:49.801Z,16
2019-02-09T12:26:50.180Z,34
2019-02-09T12:28:50.306Z,37
2019-02-09T12:30:50.681Z,28
2019-02-09T12:32:50.020Z,30
2019-02-09T12:34:50.647Z,14
2019-02-09T12:36:49.945Z,39
2019-02-09T12:38:50.077Z,32
2019-02-09T12:40:50.261Z,43
2019-02-09T12:42:50.437Z,35
2019-02-09T12:44:49.816Z,25
2019-02-09T12:46:50.221Z,37
2019-02-09T12:48:50.359Z,25
2019-02-09T12:50:50.636Z,28
2019-02-09T12:52:49.995Z,29
2019-02-09T12:54:50.149Z,65
2019-02-09T12:56:50.378Z,31
2019-02-09T12:58:50.622Z,33
2019-02-09T13:00:49.899Z,35
2019-02-09T13:02:50.217Z,32
2019-02-09T13:04:49.803Z,26
2019-02-09T13:06:50.114Z,37
2019-02-09T13:08:50.340Z,28
2019-02-09T13:10:50.554Z,26
2019-02-09T13:12:49.817Z,39
2019-02-09T13:14:50.077Z,32
2019-02-09T13:16:50.340Z,28
2019-02-09T13:18:50.538Z,27
2019-02-09T13:20:49.824Z,27
2019-02-09T13:22:50.029Z,30
2019-02-09T13:24:50.184Z,25
2019-02-09T13:26:50.490Z,22
2019-02-09T13:28:49.759Z,29
2019-02-09T13:30:49.923Z,34
2019-02-09T13:32:50.214Z,26
2019-02-09T13:34:49.806Z,26
2019-02-09T13:36:50.146Z,26
2019-02-09T13:38:50.333Z,33
2019-02-09T13:40:50.657Z,41
2019-02-09T13:42:49.843Z,28
2019-02-09T13:44:50.073Z,30
2019-02-09T13:46:50.310Z,17
2019-02-09T13:48:50.535Z,34
2019-02-09T13:50:49.774Z,39
2019-02-09T13:52:49.932Z,23
2019-02-09T13:54:50.133Z,33
2019-02-09T13:56:50.514Z,31
2019-02-09T13:58:49.712Z,19
2019-02-09T14:00:49.878Z,23
2019-02-09T14:02:50.102Z,28
2019-02-09T14:04:49.830Z,32
2019-02-09T14:06:50.149Z,25
2019-02-09T14:08:50.304Z,23
2019-02-09T14:10:50.463Z,26
2019-02-09T14:12:50.609Z,26
2019-02-09T14:14:49.876Z,30
2019-02-09T14:16:50.241Z,37
2019-02-09T14:18:50.533Z,23
2019-02-09T14:20:49.760Z,29
2019-02-09T14:22:49.939Z,25
2019-02-09T14:24:50.198Z,26
2019-02-09T14:26:50.486Z,43
2019-02-09T14:28:49.782Z,60
2019-02-09T14:30:49.906Z,29
2019-02-09T14:32:50.089Z,81
2019-02-09T14:34:49.702Z,73
2019-02-09T14:36:50.170Z,47
2019-02-09T14:38:50.417Z,67
2019-02-09T14:40:50.601Z,67
2019-02-09T14:42:49.835Z,67
